createdAt,value
2023-05-02T00:01:32.946Z,80.32
2023-05-02T00:11:35.409Z,80.54
2023-05-02T00:21:39.096Z,79.94
2023-05-02T00:31:41.941Z,79.71
2023-05-02T00:41:45.794Z,80.92
2023-05-02T00:51:48.241Z,81.31
2023-05-02T01:01:56.263Z,81.43
2023-05-02T01:12:03.946Z,81.74
2023-05-02T01:22:09.863Z,81.43
2023-05-02T01:32:16.035Z,80.92
2023-05-02T01:42:19.101Z,80.99
2023-05-02T01:52:23.964Z,81.40
2023-05-02T02:02:27.910Z,81.45
2023-05-02T02:12:36.667Z,81.25
2023-05-02T02:22:40.310Z,81.09
2023-05-02T02:32:44.044Z,81.01
2023-05-02T02:42:49.229Z,80.37
2023-05-02T02:52:56.544Z,79.79
2023-05-02T03:02:59.116Z,80.37
2023-05-02T03:13:02.878Z,79.94
2023-05-02T03:23:05.319Z,80.81
2023-05-02T03:33:09.766Z,80.14
2023-05-02T03:43:12.590Z,81.97
2023-05-02T03:53:17.106Z,82.27
2023-05-02T04:03:19.582Z,81.17
2023-05-02T04:13:23.367Z,81.88
2023-05-02T04:23:25.794Z,81.84
2023-05-02T04:33:30.154Z,81.92
2023-05-02T04:43:32.603Z,82.62
2023-05-02T04:53:36.417Z,82.41
2023-05-02T05:03:38.975Z,82.37
2023-05-02T05:13:43.148Z,82.69
2023-05-02T05:23:46.332Z,82.92
2023-05-02T05:33:50.224Z,82.50
2023-05-02T05:43:52.616Z,82.10
2023-05-02T05:53:56.382Z,81.70
2023-05-02T06:03:59.055Z,80.74
2023-05-02T06:14:02.809Z,80.54
2023-05-02T06:24:05.680Z,80.69
2023-05-02T06:34:09.481Z,81.00
2023-05-02T06:44:11.890Z,80.68
2023-05-02T06:54:15.876Z,80.48
2023-05-02T07:04:18.318Z,80.55
2023-05-02T07:14:22.234Z,79.58
2023-05-02T07:24:24.634Z,81.20
2023-05-02T07:34:28.397Z,81.16
2023-05-02T07:44:30.845Z,81.97
2023-05-02T07:54:35.492Z,80.41
2023-05-02T08:04:37.976Z,80.89
2023-05-02T08:14:41.738Z,79.67
2023-05-02T08:24:44.103Z,79.75
2023-05-02T08:34:47.842Z,80.94
2023-05-02T08:44:50.320Z,79.83
2023-05-02T08:54:54.526Z,80.22
2023-05-02T09:04:59.150Z,81.58
2023-05-02T09:15:13.511Z,80.32
2023-05-02T09:25:16.070Z,77.82
2023-05-02T09:35:23.724Z,78.13
2023-05-02T09:45:26.854Z,75.30
2023-05-02T09:55:31.079Z,75.09
2023-05-02T10:05:34.071Z,74.79
2023-05-02T10:15:38.646Z,73.98
2023-05-02T10:25:41.094Z,71.05
2023-05-02T10:35:46.914Z,71.36
2023-05-02T10:45:49.368Z,69.98
2023-05-02T10:56:10.835Z,69.53
2023-05-02T11:06:14.644Z,66.96
2023-05-02T11:16:17.447Z,64.71
2023-05-02T11:26:26.087Z,63.45
2023-05-02T11:36:29.686Z,56.31
2023-05-02T11:46:33.740Z,56.38
2023-05-02T11:56:36.247Z,62.14
2023-05-02T12:06:40.142Z,56.00
2023-05-02T12:16:42.877Z,58.23
2023-05-02T12:26:47.249Z,55.37
2023-05-02T12:36:49.692Z,53.42
2023-05-02T12:47:02.548Z,55.41
2023-05-02T12:57:05.623Z,51.29
2023-05-02T13:07:09.403Z,52.70
2023-05-02T13:17:12.042Z,58.28
2023-05-02T13:27:18.347Z,56.82
2023-05-02T13:37:20.794Z,57.21
2023-05-02T13:47:24.647Z,54.85
2023-05-02T13:57:27.106Z,54.34
2023-05-02T14:07:30.906Z,53.98
2023-05-02T14:17:33.451Z,48.85
2023-05-02T14:27:37.190Z,51.04
2023-05-02T14:37:39.693Z,49.56
2023-05-02T14:47:43.724Z,49.66
2023-05-02T14:57:46.244Z,50.77
2023-05-02T15:07:50.086Z,52.97
2023-05-02T15:17:52.955Z,51.85
2023-05-02T15:27:56.883Z,51.23
2023-05-02T15:37:59.735Z,52.14
2023-05-02T15:48:03.497Z,51.70
2023-05-02T15:58:06.173Z,50.02
2023-05-02T16:08:09.976Z,50.50
2023-05-02T16:18:12.586Z,51.15
2023-05-02T16:28:16.418Z,48.16
2023-05-02T16:38:19.200Z,47.85
2023-05-02T16:48:23.234Z,49.06
2023-05-02T16:58:25.742Z,48.17
2023-05-02T17:08:30.415Z,46.99
2023-05-02T17:18:34.426Z,47.31
2023-05-02T17:28:39.617Z,47.75
2023-05-02T17:38:42.042Z,47.85
2023-05-02T17:48:46.096Z,47.83
2023-05-02T17:58:48.607Z,48.72
2023-05-02T18:08:52.539Z,49.43
2023-05-02T18:18:55.064Z,53.36
2023-05-02T18:28:58.894Z,54.19
2023-05-02T18:39:01.508Z,54.74
2023-05-02T18:49:05.493Z,55.88
2023-05-02T18:59:08.237Z,55.99
2023-05-02T19:09:13.601Z,56.47
2023-05-02T19:19:17.464Z,58.25
2023-05-02T19:29:21.271Z,57.74
2023-05-02T19:39:23.738Z,58.97
2023-05-02T19:49:27.677Z,60.93
2023-05-02T19:59:30.320Z,61.73
2023-05-02T20:09:34.381Z,61.78
2023-05-02T20:19:36.835Z,62.33
2023-05-02T20:29:40.735Z,63.13
2023-05-02T20:39:43.377Z,62.69
2023-05-02T20:49:49.170Z,63.47
2023-05-02T20:59:51.927Z,63.37
2023-05-02T21:09:59.920Z,63.79
2023-05-02T21:20:03.081Z,64.38
2023-05-02T21:30:08.001Z,65.17
2023-05-02T21:40:11.193Z,64.90
2023-05-02T21:50:14.989Z,64.55
2023-05-02T22:00:17.576Z,65.80
2023-05-02T22:10:21.467Z,66.16
2023-05-02T22:20:24.777Z,65.81
2023-05-02T22:30:28.592Z,65.17
2023-05-02T22:40:31.548Z,66.85
2023-05-02T22:50:35.167Z,66.63
2023-05-02T23:00:39.041Z,67.38
2023-05-02T23:10:41.557Z,67.67
2023-05-02T23:20:45.372Z,67.17
2023-05-02T23:30:48.079Z,68.24
2023-05-02T23:40:52.543Z,67.77
2023-05-02T23:50:55.074Z,68.54
